createdAt,value
2019-03-06T00:01:15.980Z,6.50
2019-03-06T00:03:45.793Z,6.40
2019-03-06T00:06:16.950Z,6.40
2019-03-06T00:08:47.076Z,6.40
2019-03-06T00:11:17.424Z,6.50
2019-03-06T00:13:47.158Z,6.40
2019-03-06T00:16:16.969Z,6.40
2019-03-06T00:18:46.701Z,6.40
2019-03-06T00:21:16.508Z,6.40
2019-03-06T00:23:46.316Z,6.40
2019-03-06T00:26:16.026Z,6.30
2019-03-06T00:28:45.768Z,6.40
2019-03-06T00:31:15.512Z,6.30
2019-03-06T00:33:45.196Z,6.40
2019-03-06T00:36:16.572Z,6.30
2019-03-06T00:38:46.196Z,6.30
2019-03-06T00:41:20.596Z,6.30
2019-03-06T00:43:50.303Z,6.30
2019-03-06T00:46:20.070Z,6.30
2019-03-06T00:48:49.740Z,6.30
2019-03-06T00:51:19.442Z,6.30
2019-03-06T00:53:49.354Z,6.40
2019-03-06T00:56:19.297Z,6.30
2019-03-06T00:58:48.952Z,6.30
2019-03-06T01:01:18.714Z,6.30
2019-03-06T01:03:48.678Z,6.30
2019-03-06T01:06:18.543Z,6.30
2019-03-06T01:08:48.588Z,6.30
2019-03-06T01:11:18.450Z,6.40
2019-03-06T01:13:48.192Z,6.30
2019-03-06T01:16:17.974Z,6.30
2019-03-06T01:18:47.836Z,6.30
2019-03-06T01:21:17.683Z,6.30
2019-03-06T01:23:47.385Z,6.30
2019-03-06T01:26:17.128Z,6.30
2019-03-06T01:28:46.954Z,6.30
2019-03-06T01:31:16.752Z,6.20
2019-03-06T01:33:57.078Z,6.20
2019-03-06T01:36:34.630Z,6.20
2019-03-06T01:39:16.298Z,6.20
2019-03-06T01:41:53.584Z,6.10
2019-03-06T01:44:24.982Z,6.10
2019-03-06T01:46:54.730Z,6.10
2019-03-06T01:49:24.739Z,6.20
2019-03-06T01:51:54.430Z,6.20
2019-03-06T01:54:24.102Z,6.10
2019-03-06T01:56:53.798Z,6.10
2019-03-06T01:59:23.442Z,6.10
2019-03-06T02:01:53.145Z,6.10
2019-03-06T02:04:23.103Z,6.10
2019-03-06T02:06:52.808Z,6.10
2019-03-06T02:09:23.692Z,6.10
2019-03-06T02:11:53.397Z,6.10
2019-03-06T02:14:23.140Z,6.10
2019-03-06T02:16:52.960Z,6.10
2019-03-06T02:19:22.695Z,6.10
2019-03-06T02:21:52.438Z,6.10
2019-03-06T02:24:22.378Z,6.00
2019-03-06T02:26:52.186Z,6.10
2019-03-06T02:29:22.000Z,6.00
2019-03-06T02:31:51.819Z,6.00
2019-03-06T02:34:21.521Z,6.00
2019-03-06T02:36:51.508Z,6.00
2019-03-06T02:39:21.202Z,6.00
2019-03-06T02:41:50.832Z,6.00
2019-03-06T02:44:20.869Z,6.00
2019-03-06T02:46:53.326Z,6.00
2019-03-06T02:49:23.015Z,6.00
2019-03-06T02:51:52.882Z,5.90
2019-03-06T02:54:22.730Z,5.90
2019-03-06T02:56:52.562Z,5.90
2019-03-06T02:59:24.017Z,5.90
2019-03-06T03:01:58.386Z,5.90
2019-03-06T03:04:29.797Z,5.90
2019-03-06T03:07:01.190Z,5.90
2019-03-06T03:09:31.421Z,5.80
2019-03-06T03:12:01.169Z,5.80
2019-03-06T03:14:30.922Z,5.80
2019-03-06T03:17:00.623Z,5.80
2019-03-06T03:19:30.446Z,5.80
2019-03-06T03:22:00.148Z,5.80
2019-03-06T03:24:29.981Z,5.80
2019-03-06T03:26:59.746Z,5.80
2019-03-06T03:29:29.525Z,5.80
2019-03-06T03:31:59.873Z,5.80
2019-03-06T03:34:29.742Z,5.80
2019-03-06T03:36:59.706Z,5.80
2019-03-06T03:39:29.361Z,5.70
2019-03-06T03:41:59.699Z,5.70
2019-03-06T03:44:29.389Z,5.80
2019-03-06T03:46:59.069Z,5.70
2019-03-06T03:49:29.109Z,5.70
2019-03-06T03:51:58.984Z,5.70
2019-03-06T03:54:28.794Z,5.70
2019-03-06T03:56:58.472Z,5.60
2019-03-06T04:00:05.139Z,5.70
2019-03-06T04:02:34.966Z,5.70
2019-03-06T04:05:06.953Z,5.70
2019-03-06T04:07:36.764Z,5.70
2019-03-06T04:13:49.333Z,5.70
2019-03-06T04:16:20.389Z,5.60
2019-03-06T04:18:51.202Z,5.70
2019-03-06T04:21:22.280Z,5.60
2019-03-06T04:23:53.023Z,5.60
2019-03-06T04:26:23.817Z,5.60
2019-03-06T04:28:54.551Z,5.60
2019-03-06T04:31:25.135Z,5.60
2019-03-06T04:33:56.142Z,5.50
2019-03-06T04:36:26.854Z,5.50
2019-03-06T04:38:57.824Z,5.50
2019-03-06T04:41:29.164Z,5.50
2019-03-06T04:43:59.964Z,5.50
2019-03-06T04:46:30.546Z,5.50
2019-03-06T04:49:01.128Z,5.50
2019-03-06T04:51:31.839Z,5.50
2019-03-06T04:54:02.359Z,5.50
2019-03-06T04:56:32.938Z,5.50
2019-03-06T04:59:03.901Z,5.50
2019-03-06T05:01:34.787Z,5.50
2019-03-06T05:04:05.494Z,5.50
2019-03-06T05:06:36.240Z,5.50
2019-03-06T05:09:07.501Z,5.40
2019-03-06T05:11:38.188Z,5.50
2019-03-06T05:14:08.987Z,5.50
2019-03-06T05:16:44.413Z,5.40
2019-03-06T05:19:15.050Z,5.50
2019-03-06T05:21:45.830Z,5.40
2019-03-06T05:24:16.406Z,5.40
2019-03-06T05:26:47.001Z,5.40
2019-03-06T05:29:17.709Z,4.80
2019-03-06T05:32:07.692Z,5.00
2019-03-06T05:34:38.403Z,5.20
2019-03-06T05:37:28.656Z,5.30
2019-03-06T05:39:59.415Z,5.30
2019-03-06T05:42:30.014Z,5.30
2019-03-06T05:45:00.980Z,5.30
2019-03-06T05:47:31.576Z,5.30
2019-03-06T05:50:01.970Z,5.30
2019-03-06T05:52:32.954Z,5.30
2019-03-06T05:55:03.939Z,5.30
2019-03-06T05:57:34.751Z,5.30
2019-03-06T06:00:10.961Z,5.30
2019-03-06T06:02:41.787Z,5.30
2019-03-06T06:05:13.822Z,5.30
2019-03-06T06:07:44.443Z,5.30
2019-03-06T06:10:16.207Z,5.30
2019-03-06T06:12:47.294Z,5.30
2019-03-06T06:15:18.044Z,5.30
2019-03-06T06:17:48.737Z,5.30
2019-03-06T06:20:19.157Z,5.20
2019-03-06T06:23:00.660Z,5.20
2019-03-06T06:25:32.893Z,5.20
2019-03-06T06:28:03.619Z,5.20
2019-03-06T06:30:34.565Z,5.20
2019-03-06T06:33:05.220Z,5.20
2019-03-06T06:35:35.672Z,5.20
2019-03-06T06:38:06.562Z,5.20
2019-03-06T06:40:37.304Z,5.20
2019-03-06T06:43:08.379Z,5.10
2019-03-06T06:45:39.082Z,5.20
2019-03-06T06:48:11.910Z,5.20
2019-03-06T06:51:02.569Z,5.20
2019-03-06T06:53:45.116Z,5.20
2019-03-06T06:56:36.686Z,5.20
2019-03-06T06:59:19.244Z,5.20
2019-03-06T07:02:20.037Z,5.20
2019-03-06T07:05:39.724Z,5.20
2019-03-06T07:08:18.438Z,5.20
2019-03-06T07:10:50.813Z,5.20
2019-03-06T07:13:23.428Z,5.20
2019-03-06T07:16:11.223Z,5.20
2019-03-06T07:18:59.158Z,5.30
2019-03-06T07:21:34.528Z,5.20
2019-03-06T07:24:16.190Z,5.20
2019-03-06T07:26:51.817Z,5.20
2019-03-06T07:29:26.780Z,5.20
2019-03-06T07:32:15.532Z,5.30
2019-03-06T07:35:29.681Z,5.20
2019-03-06T07:38:04.994Z,5.30
2019-03-06T07:40:37.499Z,5.30
2019-03-06T07:43:09.870Z,5.20
2019-03-06T07:45:48.384Z,5.20
2019-03-06T07:48:39.103Z,5.20
2019-03-06T07:51:11.359Z,5.30
2019-03-06T07:54:03.663Z,5.30
2019-03-06T07:56:48.583Z,5.30
2019-03-06T07:59:19.365Z,5.30
2019-03-06T08:02:01.973Z,5.30
2019-03-06T08:04:32.713Z,5.30
2019-03-06T08:07:04.795Z,5.30
2019-03-06T08:09:35.363Z,5.30
2019-03-06T08:12:07.960Z,5.40
2019-03-06T08:14:58.601Z,5.40
2019-03-06T08:17:37.030Z,5.30
2019-03-06T08:20:26.399Z,5.40
2019-03-06T08:23:17.208Z,5.40
2019-03-06T08:25:49.891Z,5.40
2019-03-06T08:28:21.079Z,5.40
2019-03-06T08:31:02.517Z,5.40
2019-03-06T08:33:33.200Z,5.40
2019-03-06T08:36:03.958Z,5.40
2019-03-06T08:38:34.756Z,5.40
2019-03-06T08:41:06.077Z,5.40
2019-03-06T08:43:38.128Z,5.40
2019-03-06T08:46:16.851Z,5.50
2019-03-06T08:48:55.307Z,5.40
2019-03-06T08:51:33.678Z,5.40
2019-03-06T08:54:18.130Z,5.50
2019-03-06T08:57:09.145Z,5.50
2019-03-06T08:59:41.511Z,5.50
2019-03-06T09:02:30.271Z,5.50
2019-03-06T09:05:08.660Z,5.60
2019-03-06T09:07:47.098Z,5.50
2019-03-06T09:10:19.268Z,5.50
2019-03-06T09:12:52.196Z,5.50
2019-03-06T09:15:30.564Z,5.50
2019-03-06T09:18:11.739Z,5.60
2019-03-06T09:21:00.090Z,5.50
2019-03-06T09:23:32.464Z,5.50
2019-03-06T09:26:05.041Z,5.60
2019-03-06T09:28:38.028Z,5.50
2019-03-06T09:31:22.886Z,5.50
2019-03-06T09:34:11.848Z,5.50
2019-03-06T09:36:53.434Z,5.60
2019-03-06T09:39:31.800Z,5.60
2019-03-06T09:42:19.478Z,5.60
2019-03-06T09:44:51.854Z,5.60
2019-03-06T09:47:24.443Z,5.60
2019-03-06T09:50:09.090Z,5.60
2019-03-06T09:52:57.638Z,5.60
2019-03-06T09:55:30.115Z,5.60
2019-03-06T09:58:08.494Z,5.60
2019-03-06T10:00:41.008Z,5.70
2019-03-06T10:03:22.800Z,5.60
2019-03-06T10:05:55.375Z,5.60
2019-03-06T10:08:27.896Z,5.60
2019-03-06T10:11:03.595Z,5.70
2019-03-06T10:13:41.711Z,5.70
2019-03-06T10:16:18.684Z,5.70
2019-03-06T10:18:51.260Z,5.70
2019-03-06T10:21:23.192Z,5.70
2019-03-06T10:23:54.894Z,5.70
2019-03-06T10:26:25.780Z,5.70
2019-03-06T10:28:56.684Z,5.80
2019-03-06T10:31:27.195Z,5.80
2019-03-06T10:33:57.870Z,5.80
2019-03-06T10:36:29.306Z,5.80
2019-03-06T10:38:59.867Z,5.80
2019-03-06T10:41:31.196Z,5.80
2019-03-06T10:44:01.937Z,5.90
2019-03-06T10:46:32.468Z,5.90
2019-03-06T10:49:03.549Z,5.90
2019-03-06T10:51:34.264Z,5.90
2019-03-06T10:54:05.540Z,5.90
2019-03-06T10:56:36.503Z,5.90
2019-03-06T10:59:07.623Z,5.90
2019-03-06T11:01:38.690Z,5.90
2019-03-06T11:04:17.677Z,6.00
2019-03-06T11:06:48.579Z,6.00
2019-03-06T11:09:19.387Z,6.00
2019-03-06T11:11:50.636Z,6.00
2019-03-06T11:14:21.551Z,6.00
2019-03-06T11:16:52.246Z,6.00
2019-03-06T11:19:23.019Z,6.00
2019-03-06T11:21:53.836Z,6.00
2019-03-06T11:24:24.894Z,6.00
2019-03-06T11:26:55.952Z,6.00
2019-03-06T11:29:26.798Z,6.10
2019-03-06T11:32:00.906Z,6.10
2019-03-06T11:34:38.169Z,6.10
2019-03-06T11:37:09.254Z,6.10
2019-03-06T11:39:40.139Z,6.20
2019-03-06T11:42:11.218Z,6.10
2019-03-06T11:44:42.091Z,6.10
2019-03-06T11:47:12.786Z,6.10
2019-03-06T11:49:43.521Z,6.10
2019-03-06T11:52:16.270Z,6.10
2019-03-06T11:55:10.361Z,6.10
2019-03-06T11:57:33.290Z,6.10
2019-03-06T12:00:05.150Z,6.10
2019-03-06T12:02:36.021Z,6.10
2019-03-06T12:05:14.266Z,6.10
2019-03-06T12:07:45.561Z,6.10
2019-03-06T12:10:16.225Z,6.10
2019-03-06T12:12:47.273Z,6.10
2019-03-06T12:15:18.158Z,6.10
2019-03-06T12:17:50.936Z,6.10
2019-03-06T12:20:22.028Z,6.10
2019-03-06T12:22:53.191Z,6.10
2019-03-06T12:25:23.894Z,6.10
2019-03-06T12:27:54.304Z,6.10
2019-03-06T12:30:25.228Z,6.10
2019-03-06T12:32:56.207Z,6.10
2019-03-06T12:35:27.364Z,6.20
2019-03-06T12:37:58.703Z,6.10
2019-03-06T12:40:30.567Z,6.10
2019-03-06T12:43:01.202Z,6.10
2019-03-06T12:45:32.059Z,6.10
2019-03-06T12:48:12.010Z,6.10
2019-03-06T12:50:42.827Z,6.10
2019-03-06T12:53:13.610Z,6.10
2019-03-06T12:55:44.693Z,6.10
2019-03-06T12:58:15.402Z,6.10
2019-03-06T13:00:46.166Z,6.10
2019-03-06T13:03:18.281Z,6.10
2019-03-06T13:05:49.521Z,6.10
2019-03-06T13:08:20.136Z,6.10
2019-03-06T13:10:51.262Z,6.10
2019-03-06T13:13:21.894Z,6.10
2019-03-06T13:15:53.140Z,6.10
2019-03-06T13:18:23.798Z,6.10
2019-03-06T13:20:54.470Z,6.10
2019-03-06T13:23:25.352Z,6.10
2019-03-06T13:25:56.233Z,6.10
2019-03-06T13:28:27.294Z,6.10
2019-03-06T13:30:58.335Z,6.10
2019-03-06T13:33:30.972Z,6.10
2019-03-06T13:36:01.953Z,6.10
2019-03-06T13:38:32.722Z,6.20
2019-03-06T13:41:03.583Z,6.10
2019-03-06T13:43:34.086Z,6.20
2019-03-06T13:46:04.861Z,6.10
2019-03-06T13:48:35.820Z,6.10
2019-03-06T13:51:06.921Z,6.10
2019-03-06T13:53:37.670Z,6.10
2019-03-06T13:56:08.637Z,6.10
2019-03-06T13:58:39.558Z,6.20
2019-03-06T14:01:11.576Z,6.20
2019-03-06T14:03:42.586Z,6.20
2019-03-06T14:06:13.423Z,6.20
2019-03-06T14:08:44.240Z,6.20
2019-03-06T14:11:14.849Z,6.20
2019-03-06T14:13:45.594Z,6.30
2019-03-06T14:16:16.726Z,6.30
2019-03-06T14:18:47.593Z,6.30
2019-03-06T14:21:18.502Z,6.30
2019-03-06T14:23:49.017Z,6.30
2019-03-06T14:26:19.898Z,6.30
2019-03-06T14:28:50.628Z,6.30
2019-03-06T14:31:23.156Z,6.30
2019-03-06T14:33:53.862Z,6.30
2019-03-06T14:36:24.755Z,6.30
2019-03-06T14:38:55.362Z,6.30
2019-03-06T14:41:26.355Z,6.40
2019-03-06T14:43:57.107Z,6.40
2019-03-06T14:46:27.692Z,6.40
2019-03-06T14:48:58.560Z,6.40
2019-03-06T14:51:29.163Z,6.40
2019-03-06T14:53:59.894Z,6.40
2019-03-06T14:56:30.821Z,6.40
2019-03-06T14:59:01.570Z,6.40
2019-03-06T15:01:32.559Z,6.50
2019-03-06T15:04:03.241Z,6.50
2019-03-06T15:06:34.388Z,6.50
2019-03-06T15:09:07.946Z,6.50
2019-03-06T15:11:38.664Z,6.50
2019-03-06T15:14:09.359Z,6.50
2019-03-06T15:16:40.036Z,6.50
2019-03-06T15:19:10.663Z,6.50
2019-03-06T15:21:41.545Z,6.50
2019-03-06T15:24:12.236Z,6.50
2019-03-06T15:26:43.821Z,6.50
2019-03-06T15:29:14.468Z,6.50
2019-03-06T15:31:45.425Z,6.50
2019-03-06T15:34:16.429Z,6.50
2019-03-06T15:36:47.187Z,6.50
2019-03-06T15:39:29.158Z,6.50
2019-03-06T15:42:01.166Z,6.50
2019-03-06T15:44:32.680Z,6.50
2019-03-06T15:47:03.566Z,6.60
2019-03-06T15:49:34.366Z,6.60
2019-03-06T15:52:07.658Z,6.60
2019-03-06T15:54:38.323Z,6.60
2019-03-06T15:57:10.130Z,6.60
2019-03-06T15:59:41.093Z,6.60
2019-03-06T16:02:12.204Z,6.60
2019-03-06T16:04:42.976Z,6.60
2019-03-06T16:07:13.659Z,6.60
2019-03-06T16:09:44.472Z,6.60
2019-03-06T16:12:15.537Z,6.60
2019-03-06T16:14:48.942Z,6.60
2019-03-06T16:17:21.219Z,6.60
2019-03-06T16:19:51.877Z,6.60
2019-03-06T16:22:22.651Z,6.60
2019-03-06T16:24:53.443Z,6.60
2019-03-06T16:27:24.528Z,6.60
2019-03-06T16:29:55.817Z,6.70
2019-03-06T16:32:28.030Z,6.60
2019-03-06T16:34:58.827Z,6.70
2019-03-06T16:37:29.479Z,6.70
2019-03-06T16:40:00.333Z,6.70
2019-03-06T16:42:31.032Z,6.70
2019-03-06T16:45:01.844Z,6.70
2019-03-06T16:47:33.171Z,6.70
2019-03-06T16:50:13.505Z,6.70
2019-03-06T16:52:37.435Z,6.70
2019-03-06T16:55:10.704Z,6.70
2019-03-06T16:57:41.648Z,6.70
2019-03-06T17:00:26.456Z,6.70
2019-03-06T17:02:58.373Z,6.70
2019-03-06T17:05:30.795Z,6.70
2019-03-06T17:08:02.441Z,6.70
2019-03-06T17:10:34.182Z,6.70
2019-03-06T17:13:05.230Z,6.70
2019-03-06T17:15:36.215Z,6.70
2019-03-06T17:18:07.307Z,6.80
2019-03-06T17:20:38.565Z,6.80
2019-03-06T17:23:09.649Z,6.80
2019-03-06T17:25:40.564Z,6.80
2019-03-06T17:28:11.359Z,6.80
2019-03-06T17:30:42.716Z,6.80
2019-03-06T17:33:17.692Z,6.80
2019-03-06T17:35:48.381Z,6.80
2019-03-06T17:38:19.572Z,6.80
2019-03-06T17:40:50.312Z,6.80
2019-03-06T17:43:21.345Z,6.80
2019-03-06T17:45:52.131Z,6.80
2019-03-06T17:48:22.895Z,6.80
2019-03-06T17:50:53.528Z,6.80
2019-03-06T17:53:24.503Z,6.80
2019-03-06T17:55:55.302Z,6.80
2019-03-06T17:58:26.567Z,6.80
2019-03-06T18:00:59.256Z,6.80
2019-03-06T18:03:31.569Z,6.80
2019-03-06T18:06:02.320Z,6.80
2019-03-06T18:08:33.797Z,6.80
2019-03-06T18:11:04.945Z,6.80
2019-03-06T18:13:36.011Z,6.80
2019-03-06T18:16:06.792Z,6.90
2019-03-06T18:18:37.653Z,6.90
2019-03-06T18:21:08.662Z,6.90
2019-03-06T18:23:39.631Z,6.90
2019-03-06T18:26:10.536Z,6.90
2019-03-06T18:28:41.177Z,6.90
2019-03-06T18:31:12.047Z,6.90
2019-03-06T18:33:42.692Z,6.90
2019-03-06T18:36:13.794Z,6.90
2019-03-06T18:38:44.955Z,6.90
2019-03-06T18:41:15.850Z,6.90
2019-03-06T18:43:46.695Z,6.90
2019-03-06T18:46:17.669Z,6.90
2019-03-06T18:48:48.469Z,7.00
2019-03-06T18:51:19.008Z,6.90
2019-03-06T18:53:49.976Z,6.90
2019-03-06T18:56:20.709Z,7.00
2019-03-06T18:58:51.357Z,7.00
2019-03-06T19:01:22.162Z,7.00
2019-03-06T19:03:53.064Z,7.00
2019-03-06T19:06:24.049Z,7.00
2019-03-06T19:08:54.624Z,7.00
2019-03-06T19:11:25.884Z,7.00
2019-03-06T19:13:56.981Z,7.00
2019-03-06T19:16:27.889Z,7.00
2019-03-06T19:18:58.729Z,7.00
2019-03-06T19:21:29.610Z,7.00
2019-03-06T19:24:00.387Z,7.00
2019-03-06T19:26:31.139Z,7.00
2019-03-06T19:29:02.151Z,7.00
2019-03-06T19:31:32.724Z,7.00
2019-03-06T19:34:03.835Z,7.00
2019-03-06T19:36:34.727Z,7.00
2019-03-06T19:39:07.106Z,7.00
2019-03-06T19:41:37.907Z,7.00
2019-03-06T19:44:08.789Z,7.00
2019-03-06T19:46:39.808Z,7.00
2019-03-06T19:49:10.547Z,7.00
2019-03-06T19:51:51.099Z,7.00
2019-03-06T19:54:14.114Z,7.10
2019-03-06T19:56:45.361Z,7.00
2019-03-06T19:59:16.070Z,7.10
2019-03-06T20:01:46.939Z,7.00
2019-03-06T20:04:17.636Z,7.10
2019-03-06T20:06:48.830Z,7.00
2019-03-06T20:09:26.815Z,7.10
2019-03-06T20:11:57.714Z,7.10
2019-03-06T20:14:28.466Z,7.10
2019-03-06T20:16:59.438Z,7.20
2019-03-06T20:19:30.368Z,7.30
2019-03-06T20:22:02.139Z,7.30
2019-03-06T20:24:33.285Z,7.30
2019-03-06T20:27:03.961Z,7.30
2019-03-06T20:29:35.159Z,7.30
2019-03-06T20:32:05.979Z,7.30
2019-03-06T20:34:36.735Z,7.40
2019-03-06T20:37:07.430Z,7.40
2019-03-06T20:39:38.294Z,7.30
2019-03-06T20:42:08.964Z,7.30
2019-03-06T20:44:41.236Z,7.40
2019-03-06T20:47:12.283Z,7.40
2019-03-06T20:49:43.043Z,7.40
2019-03-06T20:52:13.769Z,7.50
2019-03-06T20:54:44.226Z,7.40
2019-03-06T20:57:14.797Z,7.40
2019-03-06T20:59:46.143Z,7.50
2019-03-06T21:02:17.560Z,7.50
2019-03-06T21:04:48.448Z,7.40
2019-03-06T21:07:19.214Z,7.40
2019-03-06T21:09:50.114Z,7.50
2019-03-06T21:12:21.174Z,7.50
2019-03-06T21:14:52.158Z,7.40
2019-03-06T21:17:22.945Z,7.40
2019-03-06T21:19:54.174Z,7.50
2019-03-06T21:22:24.931Z,7.50
2019-03-06T21:24:56.034Z,7.50
2019-03-06T21:27:27.205Z,7.50
2019-03-06T21:29:57.863Z,7.40
2019-03-06T21:32:29.162Z,7.50
2019-03-06T21:35:00.300Z,7.50
2019-03-06T21:37:30.994Z,7.50
2019-03-06T21:40:03.175Z,7.50
2019-03-06T21:42:34.669Z,7.40
2019-03-06T21:45:07.201Z,7.50
2019-03-06T21:47:38.447Z,7.50
2019-03-06T21:50:12.045Z,7.50
2019-03-06T21:52:42.959Z,7.50
2019-03-06T21:55:14.591Z,7.50
2019-03-06T21:57:46.273Z,7.50
2019-03-06T22:00:19.474Z,7.50
2019-03-06T22:02:50.203Z,7.50
2019-03-06T22:05:20.895Z,7.50
2019-03-06T22:07:52.246Z,7.50
2019-03-06T22:10:23.346Z,7.50
2019-03-06T22:12:54.286Z,7.50
2019-03-06T22:15:25.034Z,7.50
2019-03-06T22:17:56.215Z,7.50
2019-03-06T22:20:27.085Z,7.50
2019-03-06T22:22:57.684Z,7.50
2019-03-06T22:25:28.344Z,7.50
2019-03-06T22:27:59.059Z,7.50
2019-03-06T22:30:29.793Z,7.50
2019-03-06T22:33:00.774Z,7.50
2019-03-06T22:35:31.907Z,7.50
2019-03-06T22:38:03.272Z,7.50
2019-03-06T22:40:34.172Z,7.50
2019-03-06T22:43:05.235Z,7.50
2019-03-06T22:45:36.749Z,7.50
2019-03-06T22:48:07.437Z,7.50
2019-03-06T22:50:38.543Z,7.50
2019-03-06T22:53:09.319Z,7.50
2019-03-06T22:55:40.339Z,7.50
2019-03-06T22:58:11.094Z,7.50
2019-03-06T23:00:46.078Z,7.50
2019-03-06T23:03:17.614Z,7.50
2019-03-06T23:05:48.114Z,7.50
2019-03-06T23:08:18.922Z,7.50
2019-03-06T23:10:49.669Z,7.50
2019-03-06T23:13:20.451Z,7.50
2019-03-06T23:15:50.919Z,7.50
2019-03-06T23:18:21.628Z,7.50
2019-03-06T23:20:52.045Z,7.50
2019-03-06T23:23:22.908Z,7.50
2019-03-06T23:25:53.600Z,7.50
2019-03-06T23:28:24.323Z,7.50
2019-03-06T23:30:54.944Z,7.50
2019-03-06T23:33:25.677Z,7.50
2019-03-06T23:35:56.334Z,7.50
2019-03-06T23:38:27.140Z,7.50
2019-03-06T23:40:58.147Z,7.50
2019-03-06T23:43:29.493Z,7.50
2019-03-06T23:46:00.416Z,7.50
2019-03-06T23:48:30.820Z,7.50
2019-03-06T23:51:03.394Z,7.50
2019-03-06T23:53:39.252Z,7.50
2019-03-06T23:56:10.106Z,7.50
2019-03-06T23:58:41.063Z,7.50
